Time;durP1;ratioP1;P1;durP2;ratioP2;P2;SDS_P1;SDS_P2;PMS_P1;PMS_P2;Temp;Humidity;BMP_temperature;BMP_pressure;BME280_temperature;BME280_humidity;BME280_pressure;Samples;Min_cycle;Max_cycle;Signal;HPM_P1;HPM_P2
2022/05/13 00:00:14;;;;;;;0.00;0.00;;;;;;;;;;1744691;28;20210;-74
2022/05/13 00:01:05;;;;;;;0.00;0.00;;;;;;;;;;1744555;28;20299;-74
2022/05/13 00:01:58;;;;;;;0.00;0.00;;;;;;;;;;1743332;28;20202;-74
2022/05/13 00:02:49;;;;;;;0.00;0.00;;;;;;;;;;1745041;28;20202;-74
2022/05/13 00:03:41;;;;;;;0.00;0.00;;;;;;;;;;1746979;28;20212;-74
2022/05/13 00:04:33;;;;;;;0.00;0.00;;;;;;;;;;1746331;28;20407;-74
2022/05/13 00:05:26;;;;;;;0.00;0.00;;;;;;;;;;1743233;28;20226;-74
2022/05/13 00:06:17;;;;;;;0.00;0.00;;;;;;;;;;1744931;28;20206;-74
2022/05/13 00:07:10;;;;;;;0.00;0.00;;;;;;;;;;1745869;28;20207;-74
2022/05/13 00:08:01;;;;;;;0.00;0.00;;;;;;;;;;1744505;28;20423;-74
2022/05/13 00:08:52;;;;;;;0.00;0.00;;;;;;;;;;1745418;28;20659;-74
2022/05/13 00:10:00;;;;;;;0.00;0.00;;;;;;;;;;1745063;28;20198;-74
2022/05/13 00:10:52;;;;;;;0.00;0.00;;;;;;;;;;1743799;28;20238;-74
2022/05/13 00:11:44;;;;;;;0.00;0.00;;;;;;;;;;1745105;28;20209;-74
2022/05/13 00:12:38;;;;;;;0.00;0.00;;;;;;;;;;1745233;28;20268;-74
2022/05/13 00:13:31;;;;;;;0.00;0.00;;;;;;;;;;1742898;28;20296;-74
2022/05/13 00:14:22;;;;;;;0.00;0.00;;;;;;;;;;1744472;28;20222;-74
2022/05/13 00:15:16;;;;;;;0.00;0.00;;;;;;;;;;1744119;28;20206;-74
2022/05/13 00:16:07;;;;;;;0.45;0.00;;;;;;;;;;1745751;28;20195;-74
2022/05/13 00:17:00;;;;;;;0.00;0.00;;;;;;;;;;1745485;28;20208;-74
2022/05/13 00:17:53;;;;;;;0.10;0.10;;;;;;;;;;1745577;28;20198;-74
2022/05/13 00:18:45;;;;;;;0.00;0.00;;;;;;;;;;1744685;28;20198;-74
2022/05/13 00:19:37;;;;;;;0.00;0.00;;;;;;;;;;1745240;28;20651;-74
2022/05/13 00:20:29;;;;;;;0.00;0.00;;;;;;;;;;1743235;28;20288;-74
2022/05/13 00:21:20;;;;;;;0.00;0.00;;;;;;;;;;1745476;28;20202;-74
2022/05/13 00:22:13;;;;;;;0.00;0.00;;;;;;;;;;1745648;28;20217;-74
2022/05/13 00:23:04;;;;;;;0.00;0.00;;;;;;;;;;1745084;28;20813;-74
2022/05/13 00:23:57;;;;;;;0.00;0.00;;;;;;;;;;1746097;28;20202;-74
2022/05/13 00:24:48;;;;;;;0.00;0.00;;;;;;;;;;1745151;28;20213;-74
2022/05/13 00:25:41;;;;;;;0.00;0.00;;;;;;;;;;1744781;28;20691;-74
2022/05/13 00:26:32;;;;;;;0.00;0.00;;;;;;;;;;1744513;28;20279;-74
2022/05/13 00:27:25;;;;;;;0.00;0.00;;;;;;;;;;1745578;28;20236;-74
2022/05/13 00:28:16;;;;;;;0.00;0.00;;;;;;;;;;1744847;28;20202;-74
2022/05/13 00:29:09;;;;;;;0.00;0.00;;;;;;;;;;1745344;28;20852;-74
2022/05/13 00:30:00;;;;;;;0.00;0.00;;;;;;;;;;1745304;28;20210;-74
2022/05/13 00:30:53;;;;;;;0.00;0.00;;;;;;;;;;1743923;28;20257;-74
2022/05/13 00:31:44;;;;;;;0.00;0.00;;;;;;;;;;1745299;28;20213;-74
2022/05/13 00:32:36;;;;;;;0.00;0.00;;;;;;;;;;1744314;28;20277;-74
2022/05/13 00:33:28;;;;;;;0.00;0.00;;;;;;;;;;1742192;28;20211;-75
2022/05/13 00:34:21;;;;;;;0.00;0.00;;;;;;;;;;1745457;28;20213;-75
2022/05/13 00:35:12;;;;;;;0.00;0.00;;;;;;;;;;1744550;28;20846;-75
2022/05/13 00:36:05;;;;;;;0.00;0.00;;;;;;;;;;1744801;28;20662;-75
2022/05/13 00:36:56;;;;;;;0.00;0.00;;;;;;;;;;1745789;28;20202;-74
2022/05/13 00:37:48;;;;;;;0.00;0.00;;;;;;;;;;1745116;28;20220;-74
2022/05/13 00:38:39;;;;;;;0.00;0.00;;;;;;;;;;1737567;28;20396;-74
2022/05/13 00:39:31;;;;;;;0.00;0.00;;;;;;;;;;1737949;28;20206;-74
2022/05/13 00:40:23;;;;;;;0.00;0.00;;;;;;;;;;1736985;28;20269;-74
2022/05/13 00:41:16;;;;;;;0.00;0.00;;;;;;;;;;1737830;28;20194;-74
2022/05/13 00:42:09;;;;;;;0.00;0.00;;;;;;;;;;1738820;28;20218;-74
2022/05/13 00:43:02;;;;;;;0.00;0.00;;;;;;;;;;1738225;28;20203;-74
2022/05/13 00:43:53;;;;;;;0.00;0.00;;;;;;;;;;1738395;28;20256;-74
2022/05/13 00:44:47;;;;;;;0.00;0.00;;;;;;;;;;1737347;28;20198;-74
2022/05/13 00:45:39;;;;;;;0.00;0.00;;;;;;;;;;1737085;28;20704;-74
2022/05/13 00:46:32;;;;;;;0.00;0.00;;;;;;;;;;1738540;28;20552;-74
2022/05/13 00:47:24;;;;;;;0.00;0.00;;;;;;;;;;1732353;28;20574;-74
2022/05/13 00:48:16;;;;;;;0.00;0.00;;;;;;;;;;1738457;28;20688;-74
2022/05/13 00:49:10;;;;;;;0.00;0.00;;;;;;;;;;1737712;28;20206;-74
2022/05/13 00:50:04;;;;;;;0.00;0.00;;;;;;;;;;1738245;28;20282;-74
2022/05/13 00:50:55;;;;;;;0.00;0.00;;;;;;;;;;1736396;28;20254;-74
2022/05/13 00:51:48;;;;;;;0.00;0.00;;;;;;;;;;1737719;28;20199;-74
2022/05/13 00:52:41;;;;;;;0.00;0.00;;;;;;;;;;1738245;28;20202;-75
2022/05/13 00:53:34;;;;;;;0.00;0.00;;;;;;;;;;1738672;28;20297;-75
2022/05/13 00:54:25;;;;;;;0.00;0.00;;;;;;;;;;1738250;28;20210;-75
2022/05/13 00:55:21;;;;;;;0.00;0.00;;;;;;;;;;1736547;28;20296;-75
2022/05/13 00:56:15;;;;;;;0.00;0.00;;;;;;;;;;1738401;28;20211;-75
2022/05/13 00:57:07;;;;;;;0.00;0.00;;;;;;;;;;1737941;28;20213;-74
2022/05/13 00:57:59;;;;;;;0.00;0.00;;;;;;;;;;1737956;28;20776;-74
2022/05/13 00:58:54;;;;;;;0.00;0.00;;;;;;;;;;1731817;28;20199;-75
2022/05/13 00:59:47;;;;;;;0.00;0.00;;;;;;;;;;1737353;28;20203;-75
2022/05/13 01:00:39;;;;;;;0.00;0.00;;;;;;;;;;1736755;28;20234;-75
2022/05/13 01:01:31;;;;;;;0.00;0.00;;;;;;;;;;1735941;28;20208;-75
2022/05/13 01:02:23;;;;;;;0.00;0.00;;;;;;;;;;1738515;28;20203;-75
2022/05/13 01:03:15;;;;;;;0.00;0.00;;;;;;;;;;1737546;28;20401;-75
2022/05/13 01:04:09;;;;;;;0.00;0.00;;;;;;;;;;1738117;28;20203;-75
2022/05/13 01:05:00;;;;;;;0.00;0.00;;;;;;;;;;1738293;28;20214;-75
2022/05/13 01:05:54;;;;;;;0.00;0.00;;;;;;;;;;1736743;28;20254;-75
2022/05/13 01:06:49;;;;;;;0.00;0.00;;;;;;;;;;1738464;28;20233;-75
2022/05/13 01:07:41;;;;;;;0.00;0.00;;;;;;;;;;1738198;28;20432;-75
2022/05/13 01:08:33;;;;;;;0.00;0.00;;;;;;;;;;1737738;28;20198;-75
2022/05/13 01:09:28;;;;;;;0.00;0.00;;;;;;;;;;1736870;28;20210;-75
2022/05/13 01:10:20;;;;;;;0.00;0.00;;;;;;;;;;1736138;28;20211;-75
2022/05/13 01:11:14;;;;;;;0.00;0.00;;;;;;;;;;1738175;28;20719;-75
2022/05/13 01:12:08;;;;;;;0.00;0.00;;;;;;;;;;1738875;28;20203;-75
2022/05/13 01:13:01;;;;;;;0.00;0.00;;;;;;;;;;1738019;28;20652;-75
2022/05/13 01:13:56;;;;;;;0.00;0.00;;;;;;;;;;1731964;28;20684;-75
2022/05/13 01:14:53;;;;;;;0.00;0.00;;;;;;;;;;1737087;28;20203;-75
2022/05/13 01:15:46;;;;;;;0.00;0.00;;;;;;;;;;1736468;28;20246;-75
2022/05/13 01:18:54;;;;;;;0.00;0.00;;;;;;;;;;1738101;28;20222;-74
2022/05/13 01:19:45;;;;;;;0.00;0.00;;;;;;;;;;1737919;28;20221;-75
2022/05/13 01:20:40;;;;;;;0.00;0.00;;;;;;;;;;1737365;28;20280;-75
2022/05/13 01:21:35;;;;;;;0.00;0.00;;;;;;;;;;1737443;28;20195;-75
2022/05/13 01:22:26;;;;;;;0.00;0.00;;;;;;;;;;1738094;28;20203;-74
2022/05/13 01:23:19;;;;;;;0.00;0.00;;;;;;;;;;1738403;28;20664;-74
2022/05/13 01:24:10;;;;;;;0.00;0.00;;;;;;;;;;1738158;28;20207;-74
2022/05/13 01:25:03;;;;;;;0.00;0.00;;;;;;;;;;1738551;28;20306;-74
2022/05/13 01:25:55;;;;;;;0.00;0.00;;;;;;;;;;1736825;28;20231;-74
2022/05/13 01:26:47;;;;;;;0.00;0.00;;;;;;;;;;1735398;28;20249;-74
2022/05/13 01:27:40;;;;;;;0.00;0.00;;;;;;;;;;1736876;28;20664;-75
2022/05/13 01:28:33;;;;;;;0.00;0.00;;;;;;;;;;1738381;28;20592;-75
2022/05/13 01:29:24;;;;;;;0.00;0.00;;;;;;;;;;1737968;28;20216;-75
2022/05/13 01:30:16;;;;;;;0.00;0.00;;;;;;;;;;1737797;28;20624;-75
2022/05/13 01:31:10;;;;;;;0.00;0.00;;;;;;;;;;1739892;28;20195;-75
2022/05/13 01:32:01;;;;;;;0.00;0.00;;;;;;;;;;1740256;28;20215;-75
2022/05/13 01:32:54;;;;;;;0.00;0.00;;;;;;;;;;1739067;28;20621;-75
2022/05/13 01:33:45;;;;;;;0.00;0.00;;;;;;;;;;1739019;28;20257;-75
2022/05/13 01:34:37;;;;;;;0.00;0.00;;;;;;;;;;1739225;28;20205;-74
2022/05/13 01:35:28;;;;;;;0.00;0.00;;;;;;;;;;1738447;28;20580;-74
2022/05/13 01:36:21;;;;;;;0.00;0.00;;;;;;;;;;1739262;28;20207;-74
2022/05/13 01:37:14;;;;;;;0.00;0.00;;;;;;;;;;1740236;28;20361;-74
2022/05/13 01:38:06;;;;;;;0.00;0.00;;;;;;;;;;1740870;28;20372;-74
2022/05/13 01:38:58;;;;;;;0.00;0.00;;;;;;;;;;1746595;28;20190;-75
2022/05/13 01:39:50;;;;;;;0.00;0.00;;;;;;;;;;1745012;28;20198;-74
2022/05/13 01:40:41;;;;;;;0.00;0.00;;;;;;;;;;1744859;28;20237;-74
2022/05/13 01:41:36;;;;;;;0.00;0.00;;;;;;;;;;1745652;28;20593;-74
2022/05/13 01:42:27;;;;;;;0.00;0.00;;;;;;;;;;1746706;28;20422;-74
2022/05/13 01:43:19;;;;;;;0.00;0.00;;;;;;;;;;1746871;28;20344;-74
2022/05/13 01:44:10;;;;;;;0.00;0.00;;;;;;;;;;1745854;28;20579;-74
2022/05/13 01:45:03;;;;;;;0.00;0.00;;;;;;;;;;1746692;28;20202;-74
2022/05/13 01:45:55;;;;;;;0.00;0.00;;;;;;;;;;1743953;28;20454;-74
2022/05/13 01:46:47;;;;;;;0.00;0.00;;;;;;;;;;1748250;28;20193;-74
2022/05/13 01:47:39;;;;;;;0.00;0.00;;;;;;;;;;1750736;28;20232;-74
2022/05/13 01:48:31;;;;;;;0.00;0.00;;;;;;;;;;1746147;28;20324;-74
2022/05/13 01:49:22;;;;;;;0.00;0.00;;;;;;;;;;1744931;28;20202;-74
2022/05/13 01:50:15;;;;;;;0.00;0.00;;;;;;;;;;1745376;28;20223;-74
2022/05/13 01:51:06;;;;;;;0.00;0.00;;;;;;;;;;1746044;28;20230;-74
2022/05/13 01:51:58;;;;;;;0.00;0.00;;;;;;;;;;1745857;28;20218;-74
2022/05/13 01:52:51;;;;;;;0.00;0.00;;;;;;;;;;1746099;28;20676;-74
2022/05/13 01:53:43;;;;;;;0.00;0.00;;;;;;;;;;1746949;28;20872;-74
2022/05/13 01:54:34;;;;;;;0.00;0.00;;;;;;;;;;1745962;28;20203;-74
2022/05/13 01:55:30;;;;;;;0.00;0.00;;;;;;;;;;1745009;28;20232;-74
2022/05/13 01:56:21;;;;;;;0.00;0.00;;;;;;;;;;1746141;28;20235;-75
2022/05/13 01:57:13;;;;;;;0.00;0.00;;;;;;;;;;1747306;28;20280;-74
2022/05/13 01:58:04;;;;;;;0.00;0.00;;;;;;;;;;1745581;28;20202;-74
2022/05/13 01:58:57;;;;;;;0.00;0.00;;;;;;;;;;1746368;28;20233;-74
2022/05/13 01:59:48;;;;;;;0.00;0.00;;;;;;;;;;1746278;28;20263;-74
2022/05/13 02:00:40;;;;;;;0.00;0.00;;;;;;;;;;1745108;28;20236;-74
2022/05/13 02:01:31;;;;;;;0.00;0.00;;;;;;;;;;1743834;28;20756;-74
2022/05/13 02:02:24;;;;;;;0.00;0.00;;;;;;;;;;1746743;28;20210;-74
2022/05/13 02:04:24;;;;;;;0.00;0.00;;;;;;;;;;1745381;28;20202;-74
2022/05/13 02:05:17;;;;;;;0.00;0.00;;;;;;;;;;1744689;28;20194;-74
2022/05/13 02:06:08;;;;;;;0.00;0.00;;;;;;;;;;1746619;28;20556;-74
2022/05/13 02:07:00;;;;;;;0.00;0.00;;;;;;;;;;1746965;28;20490;-74
2022/05/13 02:07:53;;;;;;;0.00;0.00;;;;;;;;;;1746095;28;20213;-74
2022/05/13 02:08:45;;;;;;;0.00;0.00;;;;;;;;;;1746352;28;20198;-74
2022/05/13 02:09:37;;;;;;;0.00;0.00;;;;;;;;;;1746136;28;20206;-74
2022/05/13 02:10:29;;;;;;;0.00;0.00;;;;;;;;;;1744609;28;20213;-74
2022/05/13 02:11:21;;;;;;;0.00;0.00;;;;;;;;;;1744960;28;20198;-74
2022/05/13 02:12:14;;;;;;;0.00;0.00;;;;;;;;;;1747045;28;20203;-74
2022/05/13 02:13:05;;;;;;;0.00;0.00;;;;;;;;;;1746041;28;20206;-74
2022/05/13 02:13:57;;;;;;;0.00;0.00;;;;;;;;;;1746792;28;20662;-74
2022/05/13 02:14:48;;;;;;;0.00;0.00;;;;;;;;;;1746037;28;20271;-74
2022/05/13 02:15:41;;;;;;;0.00;0.00;;;;;;;;;;1745014;28;20674;-74
2022/05/13 02:16:32;;;;;;;0.00;0.00;;;;;;;;;;1744829;28;20198;-74
2022/05/13 02:17:24;;;;;;;0.00;0.00;;;;;;;;;;1746578;28;20626;-74
2022/05/13 02:18:15;;;;;;;0.00;0.00;;;;;;;;;;1746003;28;20923;-74
2022/05/13 02:19:07;;;;;;;0.00;0.00;;;;;;;;;;1746267;28;20202;-74
2022/05/13 02:19:58;;;;;;;0.00;0.00;;;;;;;;;;1746117;28;20207;-74
2022/05/13 02:20:50;;;;;;;0.00;0.00;;;;;;;;;;1745126;28;20240;-74
2022/05/13 02:21:42;;;;;;;0.00;0.00;;;;;;;;;;1746291;28;20551;-74
2022/05/13 02:22:34;;;;;;;0.00;0.00;;;;;;;;;;1745305;28;20658;-74
2022/05/13 02:23:27;;;;;;;0.00;0.00;;;;;;;;;;1746328;28;20229;-75
2022/05/13 02:24:19;;;;;;;0.00;0.00;;;;;;;;;;1746113;28;20210;-75
2022/05/13 02:25:11;;;;;;;0.00;0.00;;;;;;;;;;1746839;28;20206;-74
2022/05/13 02:26:04;;;;;;;0.00;0.00;;;;;;;;;;1744762;28;20311;-74
2022/05/13 02:26:56;;;;;;;0.00;0.00;;;;;;;;;;1746846;28;20240;-74
2022/05/13 02:27:48;;;;;;;0.00;0.00;;;;;;;;;;1745716;28;20269;-74
2022/05/13 02:28:40;;;;;;;0.00;0.00;;;;;;;;;;1745648;28;20215;-74
2022/05/13 02:29:32;;;;;;;0.00;0.00;;;;;;;;;;1745831;28;20290;-74
2022/05/13 02:30:23;;;;;;;0.00;0.00;;;;;;;;;;1744650;28;20374;-74
2022/05/13 02:31:16;;;;;;;0.00;0.00;;;;;;;;;;1746664;28;20201;-74
2022/05/13 02:32:08;;;;;;;0.00;0.00;;;;;;;;;;1746439;28;20218;-74
2022/05/13 02:33:00;;;;;;;0.00;0.00;;;;;;;;;;1745710;28;20194;-74
2022/05/13 02:33:52;;;;;;;0.00;0.00;;;;;;;;;;1746302;28;20202;-74
2022/05/13 02:34:44;;;;;;;0.00;0.00;;;;;;;;;;1745094;28;20341;-74
2022/05/13 02:35:35;;;;;;;0.00;0.00;;;;;;;;;;1745290;28;20722;-74
2022/05/13 02:36:28;;;;;;;0.00;0.00;;;;;;;;;;1746013;28;20209;-75
2022/05/13 02:37:19;;;;;;;0.00;0.00;;;;;;;;;;1746883;28;20301;-75
2022/05/13 02:38:13;;;;;;;0.00;0.00;;;;;;;;;;1745140;28;20218;-74
2022/05/13 02:39:06;;;;;;;0.00;0.00;;;;;;;;;;1746697;28;20247;-74
2022/05/13 02:39:58;;;;;;;0.00;0.00;;;;;;;;;;1745794;28;20221;-74
2022/05/13 02:42:00;;;;;;;0.00;0.00;;;;;;;;;;1744099;28;20206;-74
2022/05/13 02:42:51;;;;;;;0.00;0.00;;;;;;;;;;1746110;28;20206;-74
2022/05/13 02:43:45;;;;;;;0.00;0.00;;;;;;;;;;1746344;28;20198;-74
2022/05/13 02:44:36;;;;;;;0.00;0.00;;;;;;;;;;1746017;28;20655;-74
2022/05/13 02:45:28;;;;;;;0.00;0.00;;;;;;;;;;1745258;28;20208;-74
2022/05/13 02:46:23;;;;;;;0.00;0.00;;;;;;;;;;1745740;28;20198;-74
2022/05/13 02:47:15;;;;;;;0.00;0.00;;;;;;;;;;1750324;28;20299;-74
2022/05/13 02:48:07;;;;;;;0.00;0.00;;;;;;;;;;1746753;28;20202;-74
2022/05/13 02:48:58;;;;;;;0.00;0.00;;;;;;;;;;1745883;28;20199;-74
2022/05/13 02:50:17;;;;;;;0.00;0.00;;;;;;;;;;1745347;28;20197;-74
2022/05/13 02:51:02;;;;;;;0.00;0.00;;;;;;;;;;1744638;28;20376;-74
2022/05/13 02:51:54;;;;;;;0.00;0.00;;;;;;;;;;1746627;28;20202;-74
2022/05/13 02:52:45;;;;;;;0.00;0.00;;;;;;;;;;1745290;28;20210;-74
2022/05/13 02:53:38;;;;;;;0.00;0.00;;;;;;;;;;1745979;28;20260;-74
2022/05/13 02:54:30;;;;;;;0.00;0.00;;;;;;;;;;1745409;28;20232;-74
2022/05/13 02:55:22;;;;;;;0.00;0.00;;;;;;;;;;1744678;28;20716;-74
2022/05/13 02:56:14;;;;;;;0.00;0.00;;;;;;;;;;1746485;28;20222;-74
2022/05/13 02:57:07;;;;;;;0.00;0.00;;;;;;;;;;1746335;28;20230;-74
2022/05/13 02:57:58;;;;;;;0.00;0.00;;;;;;;;;;1745957;28;20544;-74
2022/05/13 02:58:50;;;;;;;0.00;0.00;;;;;;;;;;1745522;28;20198;-74
2022/05/13 02:59:41;;;;;;;0.00;0.00;;;;;;;;;;1745491;28;20213;-74
2022/05/13 03:00:34;;;;;;;0.00;0.00;;;;;;;;;;1744942;28;20257;-74
2022/05/13 03:01:26;;;;;;;0.00;0.00;;;;;;;;;;1743167;28;20203;-74
2022/05/13 03:02:17;;;;;;;0.00;0.00;;;;;;;;;;1746464;28;20210;-74
2022/05/13 03:03:09;;;;;;;0.00;0.00;;;;;;;;;;1745333;28;20240;-74
2022/05/13 03:04:01;;;;;;;0.00;0.00;;;;;;;;;;1746731;28;20217;-74
2022/05/13 03:04:53;;;;;;;0.00;0.00;;;;;;;;;;1745332;28;20537;-74
2022/05/13 03:05:44;;;;;;;0.05;0.05;;;;;;;;;;1744187;28;20237;-74
2022/05/13 03:06:36;;;;;;;0.00;0.00;;;;;;;;;;1746282;28;20222;-74
2022/05/13 03:07:27;;;;;;;0.00;0.00;;;;;;;;;;1745823;28;20528;-74
2022/05/13 03:08:20;;;;;;;0.00;0.00;;;;;;;;;;1745936;28;20277;-74
2022/05/13 03:09:11;;;;;;;0.00;0.00;;;;;;;;;;1745477;28;20213;-74
2022/05/13 03:10:05;;;;;;;0.00;0.00;;;;;;;;;;1746087;28;20216;-74
2022/05/13 03:10:56;;;;;;;0.00;0.00;;;;;;;;;;1743604;28;20538;-74
2022/05/13 03:11:48;;;;;;;0.00;0.00;;;;;;;;;;1745544;28;20248;-74
2022/05/13 03:12:40;;;;;;;0.00;0.00;;;;;;;;;;1746057;28;20494;-74
2022/05/13 03:13:33;;;;;;;0.00;0.00;;;;;;;;;;1746347;28;20236;-74
2022/05/13 03:14:24;;;;;;;0.00;0.00;;;;;;;;;;1745962;28;20244;-74
2022/05/13 03:15:16;;;;;;;0.00;0.00;;;;;;;;;;1744559;28;20241;-74
2022/05/13 03:16:08;;;;;;;0.00;0.00;;;;;;;;;;1746072;28;20571;-74
2022/05/13 03:17:00;;;;;;;0.00;0.00;;;;;;;;;;1745764;28;20277;-73
2022/05/13 03:17:51;;;;;;;0.00;0.00;;;;;;;;;;1745077;28;20281;-73
2022/05/13 03:18:43;;;;;;;0.00;0.00;;;;;;;;;;1746299;28;20198;-74
2022/05/13 03:19:35;;;;;;;0.00;0.00;;;;;;;;;;1745877;28;20206;-74
2022/05/13 03:20:30;;;;;;;0.00;0.00;;;;;;;;;;1744712;28;20580;-74
2022/05/13 03:21:22;;;;;;;0.00;0.00;;;;;;;;;;1745858;28;20216;-74
2022/05/13 03:22:14;;;;;;;0.00;0.00;;;;;;;;;;1745662;28;20198;-74
2022/05/13 03:23:05;;;;;;;0.00;0.00;;;;;;;;;;1745352;28;20206;-74
2022/05/13 03:23:58;;;;;;;0.00;0.00;;;;;;;;;;1745389;28;20221;-74
2022/05/13 03:24:49;;;;;;;0.00;0.00;;;;;;;;;;1745755;28;20214;-74
2022/05/13 03:25:43;;;;;;;0.00;0.00;;;;;;;;;;1744896;28;20241;-74
2022/05/13 03:26:34;;;;;;;0.00;0.00;;;;;;;;;;1746103;28;20680;-74
2022/05/13 03:27:26;;;;;;;0.00;0.00;;;;;;;;;;1745952;28;20301;-74
2022/05/13 03:28:17;;;;;;;0.00;0.00;;;;;;;;;;1745377;28;20218;-74
2022/05/13 03:29:09;;;;;;;0.00;0.00;;;;;;;;;;1745663;28;20198;-74
2022/05/13 03:30:00;;;;;;;0.00;0.00;;;;;;;;;;1744851;28;20209;-74
2022/05/13 03:30:53;;;;;;;0.00;0.00;;;;;;;;;;1744706;28;20225;-74
2022/05/13 03:31:44;;;;;;;0.00;0.00;;;;;;;;;;1742432;28;20217;-74
2022/05/13 03:32:35;;;;;;;0.00;0.00;;;;;;;;;;1745494;28;20408;-74
2022/05/13 03:33:28;;;;;;;0.00;0.00;;;;;;;;;;1745789;28;20640;-74
2022/05/13 03:34:21;;;;;;;0.00;0.00;;;;;;;;;;1745199;28;20276;-74
2022/05/13 03:35:14;;;;;;;0.00;0.00;;;;;;;;;;1745133;28;20198;-73
2022/05/13 03:36:06;;;;;;;0.00;0.00;;;;;;;;;;1744451;28;20420;-74
2022/05/13 03:36:58;;;;;;;0.00;0.00;;;;;;;;;;1746268;28;20229;-74
2022/05/13 03:37:49;;;;;;;0.00;0.00;;;;;;;;;;1745533;28;20248;-74
2022/05/13 03:38:42;;;;;;;0.00;0.00;;;;;;;;;;1745133;28;20344;-74
2022/05/13 03:39:33;;;;;;;0.00;0.00;;;;;;;;;;1745557;28;20272;-74
2022/05/13 03:40:27;;;;;;;0.00;0.00;;;;;;;;;;1743947;28;20269;-74
2022/05/13 03:41:19;;;;;;;0.00;0.00;;;;;;;;;;1745352;28;20198;-75
2022/05/13 03:42:12;;;;;;;0.00;0.00;;;;;;;;;;1745613;28;20217;-74
2022/05/13 03:43:03;;;;;;;0.00;0.00;;;;;;;;;;1745701;28;20206;-74
2022/05/13 03:43:55;;;;;;;0.00;0.00;;;;;;;;;;1746329;28;20198;-74
2022/05/13 03:44:47;;;;;;;0.00;0.00;;;;;;;;;;1745701;28;20658;-74
2022/05/13 03:45:39;;;;;;;0.00;0.00;;;;;;;;;;1745103;28;20774;-74
2022/05/13 03:46:30;;;;;;;0.00;0.00;;;;;;;;;;1745559;28;20217;-74
2022/05/13 03:47:22;;;;;;;0.00;0.00;;;;;;;;;;1745604;28;20220;-74
2022/05/13 03:48:13;;;;;;;0.00;0.00;;;;;;;;;;1744573;28;20264;-74
2022/05/13 03:49:06;;;;;;;0.00;0.00;;;;;;;;;;1745490;28;20205;-74
2022/05/13 03:49:57;;;;;;;0.00;0.00;;;;;;;;;;1746076;28;20206;-74
2022/05/13 03:50:49;;;;;;;0.00;0.00;;;;;;;;;;1745302;28;20229;-74
2022/05/13 03:51:41;;;;;;;0.00;0.00;;;;;;;;;;1745494;28;20202;-74
2022/05/13 03:52:33;;;;;;;0.00;0.00;;;;;;;;;;1745908;28;20312;-74
2022/05/13 03:53:24;;;;;;;0.00;0.00;;;;;;;;;;1745560;28;20361;-74
2022/05/13 03:54:16;;;;;;;0.00;0.00;;;;;;;;;;1744529;28;20635;-74
2022/05/13 03:55:08;;;;;;;0.00;0.00;;;;;;;;;;1745342;28;20221;-74
2022/05/13 03:56:00;;;;;;;0.00;0.00;;;;;;;;;;1744190;28;20252;-73
2022/05/13 03:56:53;;;;;;;0.00;0.00;;;;;;;;;;1746091;28;20209;-73
2022/05/13 03:57:45;;;;;;;0.00;0.00;;;;;;;;;;1745705;28;20391;-73
2022/05/13 03:58:36;;;;;;;0.00;0.00;;;;;;;;;;1745903;28;20202;-73
2022/05/13 03:59:28;;;;;;;0.00;0.00;;;;;;;;;;1745366;28;20213;-73
2022/05/13 04:00:20;;;;;;;0.00;0.00;;;;;;;;;;1742261;28;20198;-73
2022/05/13 04:01:12;;;;;;;0.00;0.00;;;;;;;;;;1744466;28;20627;-73
2022/05/13 04:02:03;;;;;;;0.00;0.00;;;;;;;;;;1745022;28;20419;-73
2022/05/13 04:02:56;;;;;;;0.00;0.00;;;;;;;;;;1745592;28;20206;-73
2022/05/13 04:03:47;;;;;;;0.00;0.00;;;;;;;;;;1746024;28;20202;-73
2022/05/13 04:09:15;;;;;;;0.00;0.00;;;;;;;;;;1745533;28;20241;-74
2022/05/13 04:10:07;;;;;;;0.00;0.00;;;;;;;;;;1741907;28;20210;-74
2022/05/13 04:11:00;;;;;;;0.00;0.00;;;;;;;;;;1743745;28;20250;-74
2022/05/13 04:16:30;;;;;;;0.00;0.00;;;;;;;;;;1744800;28;20620;-74
2022/05/13 04:17:21;;;;;;;0.00;0.00;;;;;;;;;;1746147;28;20197;-74
2022/05/13 04:18:13;;;;;;;0.00;0.00;;;;;;;;;;1744842;28;20627;-74
2022/05/13 04:19:04;;;;;;;0.00;0.00;;;;;;;;;;1745249;28;20489;-74
2022/05/13 04:19:57;;;;;;;0.00;0.00;;;;;;;;;;1745144;28;20220;-74
2022/05/13 04:20:48;;;;;;;0.00;0.00;;;;;;;;;;1744379;28;20252;-74
2022/05/13 04:21:41;;;;;;;0.00;0.00;;;;;;;;;;1745689;28;20201;-74
2022/05/13 04:22:33;;;;;;;0.00;0.00;;;;;;;;;;1745307;28;20206;-74
2022/05/13 04:23:25;;;;;;;0.00;0.00;;;;;;;;;;1745959;28;20205;-74
2022/05/13 04:24:18;;;;;;;0.00;0.00;;;;;;;;;;1745011;28;20206;-73
2022/05/13 04:25:12;;;;;;;0.00;0.00;;;;;;;;;;1745394;28;20202;-74
2022/05/13 04:26:03;;;;;;;0.00;0.00;;;;;;;;;;1744087;28;20588;-75
2022/05/13 04:26:56;;;;;;;0.00;0.00;;;;;;;;;;1745924;28;20256;-75
2022/05/13 04:27:48;;;;;;;0.00;0.00;;;;;;;;;;1745364;28;20206;-75
2022/05/13 04:28:40;;;;;;;0.00;0.00;;;;;;;;;;1745403;28;20612;-75
2022/05/13 04:29:33;;;;;;;0.00;0.00;;;;;;;;;;1745645;28;20213;-75
2022/05/13 04:30:26;;;;;;;0.00;0.00;;;;;;;;;;1743410;28;20206;-75
2022/05/13 04:31:18;;;;;;;0.00;0.00;;;;;;;;;;1744988;28;20268;-75
2022/05/13 04:32:10;;;;;;;0.10;0.10;;;;;;;;;;1745953;28;20210;-75
2022/05/13 04:33:01;;;;;;;0.00;0.00;;;;;;;;;;1744832;28;20206;-74
2022/05/13 04:33:54;;;;;;;0.00;0.00;;;;;;;;;;1746117;28;20226;-74
2022/05/13 04:34:45;;;;;;;0.00;0.00;;;;;;;;;;1744802;28;20636;-74
2022/05/13 04:35:37;;;;;;;0.00;0.00;;;;;;;;;;1744661;28;20244;-75
2022/05/13 04:36:30;;;;;;;0.00;0.00;;;;;;;;;;1744789;28;20679;-75
2022/05/13 04:37:21;;;;;;;0.00;0.00;;;;;;;;;;1745275;28;20207;-74
2022/05/13 04:38:12;;;;;;;0.00;0.00;;;;;;;;;;1745099;28;20234;-74
2022/05/13 04:39:04;;;;;;;0.03;0.03;;;;;;;;;;1745280;28;20194;-74
2022/05/13 04:39:55;;;;;;;0.00;0.00;;;;;;;;;;1745278;28;20202;-74
2022/05/13 04:40:48;;;;;;;0.00;0.00;;;;;;;;;;1744133;28;20206;-74
2022/05/13 04:42:50;;;;;;;0.00;0.00;;;;;;;;;;1744842;28;20433;-74
2022/05/13 04:43:41;;;;;;;0.00;0.00;;;;;;;;;;1745372;28;20202;-74
2022/05/13 04:44:33;;;;;;;0.00;0.00;;;;;;;;;;1745443;28;20206;-74
2022/05/13 04:45:27;;;;;;;0.00;0.00;;;;;;;;;;1743832;28;20233;-74
2022/05/13 04:46:19;;;;;;;0.00;0.00;;;;;;;;;;1745622;28;20560;-73
2022/05/13 04:48:16;;;;;;;0.00;0.00;;;;;;;;;;1744332;28;20287;-74
2022/05/13 04:49:09;;;;;;;0.00;0.00;;;;;;;;;;1743984;28;20194;-74
2022/05/13 04:50:00;;;;;;;0.00;0.00;;;;;;;;;;1745314;28;20202;-74
2022/05/13 04:50:53;;;;;;;0.00;0.00;;;;;;;;;;1741776;28;20679;-74
2022/05/13 04:51:44;;;;;;;0.00;0.00;;;;;;;;;;1741840;28;20547;-74
2022/05/13 04:52:37;;;;;;;0.00;0.00;;;;;;;;;;1745233;28;20202;-74
2022/05/13 04:53:29;;;;;;;0.00;0.00;;;;;;;;;;1745560;28;20209;-74
2022/05/13 04:54:21;;;;;;;0.00;0.00;;;;;;;;;;1745466;28;20205;-74
2022/05/13 04:55:12;;;;;;;0.00;0.00;;;;;;;;;;1736395;28;20546;-74
2022/05/13 04:56:06;;;;;;;0.00;0.00;;;;;;;;;;1737453;28;20600;-74
2022/05/13 04:56:57;;;;;;;0.00;0.00;;;;;;;;;;1743407;28;20500;-74
2022/05/13 04:57:50;;;;;;;0.00;0.00;;;;;;;;;;1745267;28;20683;-74
2022/05/13 04:58:43;;;;;;;0.00;0.00;;;;;;;;;;1745555;28;20209;-74
2022/05/13 04:59:34;;;;;;;0.00;0.00;;;;;;;;;;1745427;28;20671;-74
2022/05/13 05:00:29;;;;;;;0.00;0.00;;;;;;;;;;1743580;28;20210;-74
2022/05/13 05:01:21;;;;;;;0.00;0.00;;;;;;;;;;1742008;28;20211;-74
2022/05/13 05:02:13;;;;;;;0.00;0.00;;;;;;;;;;1738569;28;20264;-74
2022/05/13 05:03:04;;;;;;;0.00;0.00;;;;;;;;;;1744261;28;20229;-74
2022/05/13 05:03:56;;;;;;;0.00;0.00;;;;;;;;;;1745503;28;20208;-74
2022/05/13 05:04:47;;;;;;;0.00;0.00;;;;;;;;;;1744862;28;20636;-74
2022/05/13 05:05:42;;;;;;;0.00;0.00;;;;;;;;;;1744016;28;20226;-74
2022/05/13 05:06:33;;;;;;;0.00;0.00;;;;;;;;;;1745398;28;20240;-74
2022/05/13 05:07:25;;;;;;;0.00;0.00;;;;;;;;;;1744832;28;20263;-74
2022/05/13 05:08:16;;;;;;;0.00;0.00;;;;;;;;;;1744590;28;20459;-74
2022/05/13 05:09:08;;;;;;;0.00;0.00;;;;;;;;;;1745424;28;20202;-74
2022/05/13 05:10:00;;;;;;;0.00;0.00;;;;;;;;;;1745171;28;20202;-74
2022/05/13 05:10:52;;;;;;;0.00;0.00;;;;;;;;;;1743715;28;20707;-74
2022/05/13 05:11:43;;;;;;;0.00;0.00;;;;;;;;;;1745646;28;20544;-74
2022/05/13 05:12:35;;;;;;;0.00;0.00;;;;;;;;;;1745177;28;20534;-74
2022/05/13 05:13:29;;;;;;;0.00;0.00;;;;;;;;;;1745018;28;20194;-74
2022/05/13 05:14:21;;;;;;;0.00;0.00;;;;;;;;;;1744794;28;20206;-74
2022/05/13 05:15:13;;;;;;;0.00;0.00;;;;;;;;;;1744839;28;20210;-74
2022/05/13 05:16:06;;;;;;;0.00;0.00;;;;;;;;;;1744672;28;20230;-74
2022/05/13 05:16:57;;;;;;;0.00;0.00;;;;;;;;;;1745385;28;20225;-74
2022/05/13 05:17:50;;;;;;;0.00;0.00;;;;;;;;;;1745415;28;20202;-74
2022/05/13 05:18:41;;;;;;;0.00;0.00;;;;;;;;;;1745349;28;20198;-74
2022/05/13 05:19:33;;;;;;;0.00;0.00;;;;;;;;;;1744629;28;20194;-74
2022/05/13 05:20:28;;;;;;;0.00;0.00;;;;;;;;;;1743217;28;20229;-74
2022/05/13 05:21:20;;;;;;;0.00;0.00;;;;;;;;;;1745440;28;20190;-74
2022/05/13 05:22:12;;;;;;;0.00;0.00;;;;;;;;;;1745496;28;20648;-74
2022/05/13 05:23:05;;;;;;;0.00;0.00;;;;;;;;;;1745107;28;20204;-75
2022/05/13 05:23:56;;;;;;;0.00;0.00;;;;;;;;;;1745972;28;20637;-74
2022/05/13 05:24:48;;;;;;;0.00;0.00;;;;;;;;;;1745182;28;20209;-74
2022/05/13 05:25:39;;;;;;;0.00;0.00;;;;;;;;;;1743714;28;20234;-74
2022/05/13 05:26:31;;;;;;;0.00;0.00;;;;;;;;;;1744558;28;20201;-74
2022/05/13 05:27:22;;;;;;;0.00;0.00;;;;;;;;;;1745556;28;20202;-74
2022/05/13 05:28:15;;;;;;;0.00;0.00;;;;;;;;;;1745379;28;20198;-74
2022/05/13 05:29:08;;;;;;;0.00;0.00;;;;;;;;;;1745489;28;20245;-74